Time;durP1;ratioP1;P1;durP2;ratioP2;P2;SDS_P1;SDS_P2;PMS_P1;PMS_P2;Temp;Humidity;BMP_temperature;BMP_pressure;BME280_temperature;BME280_humidity;BME280_pressure;Samples;Min_cycle;Max_cycle;Signal;HPM_P1;HPM_P2
2022/01/19 00:00:07;;;;;;;;;;;0.40;99.90;1.10;101015.00;;;;347415;28;91154;-92
2022/01/19 00:00:19;;;;;;;;;;;0.40;99.90;1.10;101028.00;;;;343580;28;83418;-93
2022/01/19 00:00:31;;;;;;;;;;;0.40;99.90;1.10;101019.00;;;;344748;28;90940;-92
2022/01/19 00:00:43;;;;;;;;;;;0.40;99.90;1.10;101023.00;;;;346431;28;82735;-93
2022/01/19 00:00:55;;;;;;;;;;;0.40;99.90;1.10;101018.00;;;;344665;28;87710;-91
2022/01/19 00:01:07;;;;;;;;;;;0.40;99.90;1.10;101017.00;;;;346359;28;83523;-92
2022/01/19 00:01:19;;;;;;;;;;;0.40;99.90;1.20;101016.00;;;;344579;28;91594;-92
2022/01/19 00:01:32;;;;;;;;;;;0.40;99.90;1.20;101011.00;;;;345939;28;83554;-92
2022/01/19 00:01:44;;;;;;;;;;;0.40;99.90;1.20;101007.00;;;;345529;28;92268;-92
2022/01/19 00:01:56;;;;;;;;;;;0.40;99.90;1.20;101010.00;;;;347821;28;82275;-92
2022/01/19 00:02:08;;;;;;;;;;;0.40;99.90;1.20;101014.00;;;;348575;27;89555;-92
2022/01/19 00:02:21;;;;;;;;;;;0.40;99.90;1.20;101011.00;;;;346302;28;83317;-93
2022/01/19 00:02:33;;;;;;;;;;;0.40;99.90;1.20;101017.00;;;;345646;28;89223;-93
2022/01/19 00:02:45;;;;;;;;;;;0.40;99.90;1.20;101013.00;;;;344914;28;82751;-92
2022/01/19 00:02:57;;;;;;;;;;;0.40;99.90;1.10;101019.00;;;;347501;27;88419;-92
2022/01/19 00:03:10;;;;;;;;;;;0.40;99.90;1.10;101017.00;;;;347609;28;83121;-93
2022/01/19 00:03:22;;;;;;;;;;;0.40;99.90;1.20;101002.00;;;;346952;28;89321;-93
2022/01/19 00:03:34;;;;;;;;;;;0.50;99.90;1.10;100997.00;;;;345953;28;83451;-92
2022/01/19 00:03:46;;;;;;;;;;;0.40;99.90;1.10;101001.00;;;;345072;28;89577;-93
2022/01/19 00:03:58;;;;;;;;;;;0.40;99.90;1.20;101006.00;;;;346668;28;83274;-92
2022/01/19 00:04:10;;;;;;;;;;;0.40;99.90;1.20;101007.00;;;;346386;28;88568;-92
2022/01/19 00:04:22;;;;;;;;;;;0.40;99.90;1.20;100998.00;;;;349323;27;82555;-92
2022/01/19 00:04:33;;;;;;;;;;;0.40;99.90;1.20;100996.00;;;;347478;28;89659;-92
2022/01/19 00:04:48;;;;;;;;;;;0.50;99.90;1.20;100999.00;;;;345379;28;82332;-93
2022/01/19 00:05:00;;;;;;;;;;;0.40;99.90;1.20;101004.00;;;;346296;28;88356;-92
2022/01/19 00:05:12;;;;;;;;;;;0.40;99.90;1.20;100995.00;;;;346250;28;83366;-93
2022/01/19 00:05:24;;;;;;;;;;;0.40;99.90;1.20;100993.00;;;;346609;28;87240;-92
2022/01/19 00:05:36;;;;;;;;;;;0.40;99.90;1.20;101005.00;;;;346790;28;82457;-92
2022/01/19 00:05:49;;;;;;;;;;;0.40;99.90;1.20;100997.00;;;;347769;28;87577;-93
2022/01/19 00:06:01;;;;;;;;;;;0.40;99.90;1.10;100989.00;;;;348192;28;83354;-93
2022/01/19 00:06:14;;;;;;;;;;;0.40;99.90;1.10;101002.00;;;;346393;28;89141;-92
2022/01/19 00:06:26;;;;;;;;;;;0.50;99.90;1.20;100997.00;;;;348062;28;83360;-92
2022/01/19 00:06:37;;;;;;;;;;;0.40;99.90;1.20;101003.00;;;;346263;28;88057;-92
2022/01/19 00:06:49;;;;;;;;;;;0.50;99.90;1.10;100994.00;;;;347990;28;83457;-92
2022/01/19 00:07:01;;;;;;;;;;;0.40;99.90;1.30;100990.00;;;;346019;28;90270;-93
2022/01/19 00:07:13;;;;;;;;;;;0.40;99.90;1.40;100995.00;;;;346743;28;82401;-92
2022/01/19 00:07:25;;;;;;;;;;;0.40;99.90;1.30;100994.00;;;;347438;28;89662;-91
2022/01/19 00:07:37;;;;;;;;;;;0.50;99.90;1.20;100995.00;;;;349367;27;82408;-92
2022/01/19 00:07:49;;;;;;;;;;;0.50;99.90;1.10;101001.00;;;;347304;28;88878;-92
2022/01/19 00:08:01;;;;;;;;;;;0.40;99.90;1.10;100997.00;;;;347922;28;82353;-92
2022/01/19 00:08:17;;;;;;;;;;;0.40;99.90;1.10;100994.00;;;;348883;27;91421;-92
2022/01/19 00:08:29;;;;;;;;;;;0.40;99.90;1.10;101004.00;;;;345601;28;83312;-93
2022/01/19 00:08:41;;;;;;;;;;;0.40;99.90;1.10;100990.00;;;;347002;28;90222;-92
2022/01/19 00:08:53;;;;;;;;;;;0.40;99.90;1.20;100991.00;;;;347182;28;83260;-93
2022/01/19 00:09:05;;;;;;;;;;;0.40;99.90;1.20;100990.00;;;;347461;28;86811;-92
2022/01/19 00:09:17;;;;;;;;;;;0.40;99.90;1.10;100994.00;;;;347787;28;82360;-93
2022/01/19 00:09:29;;;;;;;;;;;0.50;99.90;1.10;100992.00;;;;346475;28;87921;-92
2022/01/19 00:09:41;;;;;;;;;;;0.40;99.90;1.10;100995.00;;;;347462;27;82571;-92
2022/01/19 00:09:52;;;;;;;;;;;0.40;99.90;1.10;100989.00;;;;348202;27;92361;-93
2022/01/19 00:10:09;;;;;;;;;;;0.40;99.90;1.10;100996.00;;;;347521;28;82562;-93
2022/01/19 00:10:27;;;;;;;;;;;0.40;99.90;1.10;100999.00;;;;348518;27;88013;-92
2022/01/19 00:10:39;;;;;;;;;;;0.40;99.90;1.00;100999.00;;;;347691;28;82328;-93
2022/01/19 00:10:51;;;;;;;;;;;0.40;99.90;1.00;100997.00;;;;345629;28;89423;-91
2022/01/19 00:11:03;;;;;;;;;;;0.40;99.90;1.00;100999.00;;;;346120;28;83424;-92
2022/01/19 00:11:14;;;;;;;;;;;0.40;99.90;1.00;100985.00;;;;347080;28;89049;-92
2022/01/19 00:11:26;;;;;;;;;;;0.40;99.90;1.00;100990.00;;;;344902;28;82217;-92
2022/01/19 00:11:38;;;;;;;;;;;0.40;99.90;1.10;100985.00;;;;345830;28;91715;-92
2022/01/19 00:11:50;;;;;;;;;;;0.40;99.90;1.00;100984.00;;;;348899;27;83181;-92
2022/01/19 00:12:02;;;;;;;;;;;0.40;99.90;1.00;100994.00;;;;345401;28;91846;-93
2022/01/19 00:12:13;;;;;;;;;;;0.40;99.90;1.00;100986.00;;;;345906;28;82402;-93
2022/01/19 00:12:25;;;;;;;;;;;0.40;99.90;1.10;100983.00;;;;347108;28;90618;-92
2022/01/19 00:12:38;;;;;;;;;;;0.40;99.90;1.10;100991.00;;;;347467;28;83316;-92
2022/01/19 00:12:49;;;;;;;;;;;0.40;99.90;1.10;100985.00;;;;345724;28;90241;-93
2022/01/19 00:13:01;;;;;;;;;;;0.40;99.90;1.10;100981.00;;;;345959;28;83463;-92
2022/01/19 00:13:13;;;;;;;;;;;0.40;99.90;1.10;100985.00;;;;346987;28;89679;-92
2022/01/19 00:13:25;;;;;;;;;;;0.40;99.90;1.10;100985.00;;;;347420;28;83371;-92
2022/01/19 00:13:37;;;;;;;;;;;0.40;99.90;1.10;100987.00;;;;345611;28;87892;-93
2022/01/19 00:13:50;;;;;;;;;;;0.40;99.90;1.10;100986.00;;;;350178;27;82573;-93
2022/01/19 00:14:02;;;;;;;;;;;0.40;99.90;1.10;100987.00;;;;345720;28;90243;-93
2022/01/19 00:14:14;;;;;;;;;;;0.40;99.90;1.10;100982.00;;;;347527;28;83229;-92
2022/01/19 00:14:27;;;;;;;;;;;0.40;99.90;1.10;100982.00;;;;345793;28;87993;-92
2022/01/19 00:14:39;;;;;;;;;;;0.40;99.90;1.00;100992.00;;;;347298;28;84211;-92
2022/01/19 00:14:51;;;;;;;;;;;0.40;99.90;1.00;100980.00;;;;347025;28;86802;-92
2022/01/19 00:15:03;;;;;;;;;;;0.40;99.90;1.00;100983.00;;;;345955;28;82368;-93
2022/01/19 00:15:15;;;;;;;;;;;0.40;99.90;0.90;100985.00;;;;344153;28;88365;-92
2022/01/19 00:15:27;;;;;;;;;;;0.40;99.90;0.90;100982.00;;;;347535;28;83420;-92
2022/01/19 00:15:39;;;;;;;;;;;0.40;99.90;0.90;100979.00;;;;345873;27;90336;-93
2022/01/19 00:15:56;;;;;;;;;;;0.40;99.90;1.00;100983.00;;;;347431;28;83518;-93
2022/01/19 00:16:08;;;;;;;;;;;0.30;99.90;1.00;100991.00;;;;348257;27;92545;-93
2022/01/19 00:16:21;;;;;;;;;;;0.30;99.90;1.00;100979.00;;;;348876;27;83514;-93
2022/01/19 00:16:33;;;;;;;;;;;0.40;99.90;1.00;100988.00;;;;348329;27;90682;-93
2022/01/19 00:16:45;;;;;;;;;;;0.40;99.90;1.00;100980.00;;;;350091;27;83459;-92
2022/01/19 00:16:57;;;;;;;;;;;0.30;99.90;1.00;100979.00;;;;345673;28;90662;-92
2022/01/19 00:17:09;;;;;;;;;;;0.30;99.90;1.00;100979.00;;;;347394;28;84005;-93
2022/01/19 00:17:21;;;;;;;;;;;0.30;99.90;1.00;100982.00;;;;347158;28;89601;-92
2022/01/19 00:17:33;;;;;;;;;;;0.30;99.90;1.00;100984.00;;;;347386;28;82390;-92
2022/01/19 00:17:44;;;;;;;;;;;0.40;99.90;1.00;100985.00;;;;348731;27;90315;-93
2022/01/19 00:17:58;;;;;;;;;;;0.30;99.90;1.00;100978.00;;;;348916;27;82426;-92
2022/01/19 00:18:10;;;;;;;;;;;0.30;99.90;1.00;100988.00;;;;346965;28;90374;-90
2022/01/19 00:18:23;;;;;;;;;;;0.30;99.90;1.00;100987.00;;;;347263;28;83396;-91
2022/01/19 00:18:35;;;;;;;;;;;0.30;99.90;1.00;100988.00;;;;346820;28;89340;-92
2022/01/19 00:18:47;;;;;;;;;;;0.30;99.90;1.00;100985.00;;;;344402;28;83408;-92
2022/01/19 00:18:59;;;;;;;;;;;0.30;99.90;1.00;100986.00;;;;345634;28;89040;-93
2022/01/19 00:19:10;;;;;;;;;;;0.30;99.90;1.00;100988.00;;;;346286;28;83118;-93
2022/01/19 00:19:22;;;;;;;;;;;0.30;99.90;1.00;100983.00;;;;345874;28;88012;-93
2022/01/19 00:19:34;;;;;;;;;;;0.30;99.90;1.00;100986.00;;;;346168;28;82410;-92
2022/01/19 00:19:46;;;;;;;;;;;0.30;99.90;1.00;100981.00;;;;344408;28;89891;-92
2022/01/19 00:19:58;;;;;;;;;;;0.30;99.90;1.10;100985.00;;;;344837;28;83330;-92
2022/01/19 00:20:10;;;;;;;;;;;0.30;99.90;1.10;100989.00;;;;345439;28;92613;-92
2022/01/19 00:20:22;;;;;;;;;;;0.30;99.90;1.00;100997.00;;;;346295;28;83342;-93
2022/01/19 00:20:34;;;;;;;;;;;0.30;99.90;1.00;100989.00;;;;345919;28;91353;-92
2022/01/19 00:20:46;;;;;;;;;;;0.30;99.90;0.90;100996.00;;;;346982;28;83457;-92
2022/01/19 00:20:58;;;;;;;;;;;0.30;99.90;0.90;101000.00;;;;345651;28;90730;-93
2022/01/19 00:21:11;;;;;;;;;;;0.30;99.90;0.90;100993.00;;;;347608;28;83330;-92
2022/01/19 00:21:22;;;;;;;;;;;0.30;99.90;1.00;100994.00;;;;347197;28;90353;-92
2022/01/19 00:21:34;;;;;;;;;;;0.30;99.90;1.00;100990.00;;;;347439;28;83367;-92
2022/01/19 00:21:46;;;;;;;;;;;0.30;99.90;1.00;100992.00;;;;348203;27;91686;-92
2022/01/19 00:21:58;;;;;;;;;;;0.30;99.90;1.00;101009.00;;;;347624;28;83825;-92
2022/01/19 00:22:10;;;;;;;;;;;0.30;99.90;1.00;101005.00;;;;348477;27;92100;-93
2022/01/19 00:22:21;;;;;;;;;;;0.30;99.90;0.90;101002.00;;;;347573;28;82539;-92
2022/01/19 00:22:33;;;;;;;;;;;0.30;99.90;1.00;101000.00;;;;345777;28;91461;-93
2022/01/19 00:22:45;;;;;;;;;;;0.30;99.90;1.00;101004.00;;;;346014;28;82475;-92
2022/01/19 00:22:57;;;;;;;;;;;0.30;99.90;1.00;101010.00;;;;345445;28;90490;-92
2022/01/19 00:23:10;;;;;;;;;;;0.30;99.90;0.90;101005.00;;;;347521;28;83536;-92
2022/01/19 00:23:22;;;;;;;;;;;0.30;99.90;1.00;101005.00;;;;347105;28;92016;-92
2022/01/19 00:23:34;;;;;;;;;;;0.30;99.90;1.00;101018.00;;;;346036;28;83280;-92
2022/01/19 00:23:46;;;;;;;;;;;0.30;99.90;1.00;101011.00;;;;346919;27;90272;-92
2022/01/19 00:23:57;;;;;;;;;;;0.30;99.90;1.00;101007.00;;;;349928;27;83349;-92
2022/01/19 00:24:09;;;;;;;;;;;0.30;99.90;1.10;101007.00;;;;347005;28;92574;-93
2022/01/19 00:24:21;;;;;;;;;;;0.30;99.90;1.10;101009.00;;;;344722;28;83478;-92
2022/01/19 00:24:33;;;;;;;;;;;0.30;99.90;1.10;101012.00;;;;344429;28;87965;-92
2022/01/19 00:24:45;;;;;;;;;;;0.30;99.90;1.10;101017.00;;;;347464;28;83390;-92
2022/01/19 00:24:57;;;;;;;;;;;0.30;99.90;1.10;101020.00;;;;346837;28;89992;-93
2022/01/19 00:25:08;;;;;;;;;;;0.30;99.90;1.10;101016.00;;;;348831;27;82444;-92
2022/01/19 00:25:20;;;;;;;;;;;0.30;99.90;1.00;101017.00;;;;345371;28;90846;-92
2022/01/19 00:25:32;;;;;;;;;;;0.30;99.90;1.10;101015.00;;;;344136;28;82429;-93
2022/01/19 00:25:45;;;;;;;;;;;0.30;99.90;1.10;101009.00;;;;348233;27;90546;-93
2022/01/19 00:25:56;;;;;;;;;;;0.30;99.90;1.00;101018.00;;;;348928;27;82559;-92
2022/01/19 00:26:08;;;;;;;;;;;0.30;99.90;1.00;101015.00;;;;345650;28;91450;-93
2022/01/19 00:26:20;;;;;;;;;;;0.30;99.90;1.00;101027.00;;;;344785;28;83557;-93
2022/01/19 00:26:32;;;;;;;;;;;0.30;99.90;1.00;101011.00;;;;345730;28;89143;-92
2022/01/19 00:26:44;;;;;;;;;;;0.30;99.90;1.00;101021.00;;;;346891;28;83517;-92
2022/01/19 00:26:56;;;;;;;;;;;0.30;99.90;1.00;101016.00;;;;347513;27;90064;-93
2022/01/19 00:27:07;;;;;;;;;;;0.30;99.90;1.10;101010.00;;;;346056;28;83446;-92
2022/01/19 00:27:20;;;;;;;;;;;0.30;99.90;1.10;101007.00;;;;347157;28;88778;-92
2022/01/19 00:27:31;;;;;;;;;;;0.30;99.90;1.10;101014.00;;;;347380;28;82352;-92
2022/01/19 00:27:43;;;;;;;;;;;0.30;99.90;1.00;101014.00;;;;347505;27;90830;-93
2022/01/19 00:27:55;;;;;;;;;;;0.30;99.90;1.10;101013.00;;;;347562;28;83385;-93
2022/01/19 00:28:07;;;;;;;;;;;0.30;99.90;1.10;101018.00;;;;345664;28;92296;-92
2022/01/19 00:28:19;;;;;;;;;;;0.30;99.90;1.10;101012.00;;;;346145;28;83480;-92
2022/01/19 00:28:31;;;;;;;;;;;0.30;99.90;1.10;101016.00;;;;345656;28;91164;-93
2022/01/19 00:28:43;;;;;;;;;;;0.30;99.90;1.00;101012.00;;;;344765;28;82490;-92
2022/01/19 00:28:55;;;;;;;;;;;0.30;99.90;1.00;101012.00;;;;346920;28;88456;-92
2022/01/19 00:29:06;;;;;;;;;;;0.30;99.90;1.00;101016.00;;;;346083;28;83467;-91
2022/01/19 00:29:18;;;;;;;;;;;0.30;99.90;1.00;101009.00;;;;344437;28;90347;-92
2022/01/19 00:29:30;;;;;;;;;;;0.30;99.90;1.00;101008.00;;;;344859;28;82477;-92
2022/01/19 00:29:42;;;;;;;;;;;0.30;99.90;1.10;101019.00;;;;346595;28;89661;-92
2022/01/19 00:29:54;;;;;;;;;;;0.30;99.90;1.10;101013.00;;;;345971;28;83435;-93
2022/01/19 00:30:06;;;;;;;;;;;0.30;99.90;1.00;101017.00;;;;345644;28;91560;-92
2022/01/19 00:30:18;;;;;;;;;;;0.30;99.90;1.00;101020.00;;;;344877;28;82469;-92
2022/01/19 00:30:30;;;;;;;;;;;0.30;99.90;1.00;101011.00;;;;344411;28;90362;-92
2022/01/19 00:30:42;;;;;;;;;;;0.30;99.90;1.00;101016.00;;;;345336;28;83301;-92
2022/01/19 00:30:54;;;;;;;;;;;0.30;99.90;1.00;101020.00;;;;344409;28;91775;-92
2022/01/19 00:31:06;;;;;;;;;;;0.30;99.90;1.00;101017.00;;;;347573;28;83166;-92
2022/01/19 00:31:18;;;;;;;;;;;0.30;99.90;1.00;101015.00;;;;345644;28;90696;-92
2022/01/19 00:31:30;;;;;;;;;;;0.30;99.90;1.00;101024.00;;;;347142;28;82474;-93
2022/01/19 00:31:41;;;;;;;;;;;0.30;99.90;1.00;101028.00;;;;344334;28;90428;-92
2022/01/19 00:31:53;;;;;;;;;;;0.30;99.90;0.90;101019.00;;;;347517;28;83196;-92
2022/01/19 00:32:05;;;;;;;;;;;0.30;99.90;0.90;101029.00;;;;344637;28;90978;-92
2022/01/19 00:32:19;;;;;;;;;;;0.30;99.90;0.90;101020.00;;;;348127;28;83449;-92
2022/01/19 00:32:30;;;;;;;;;;;0.30;99.90;1.00;101032.00;;;;347246;28;90546;-93
2022/01/19 00:32:43;;;;;;;;;;;0.30;99.90;1.00;101022.00;;;;345616;28;83607;-93
2022/01/19 00:32:54;;;;;;;;;;;0.30;99.90;1.00;101028.00;;;;348490;27;91379;-93
2022/01/19 00:33:07;;;;;;;;;;;0.30;99.90;1.10;101029.00;;;;348722;27;83505;-93
2022/01/19 00:33:19;;;;;;;;;;;0.30;99.90;1.00;101023.00;;;;344606;28;91780;-92
2022/01/19 00:33:31;;;;;;;;;;;0.30;99.90;0.90;101031.00;;;;347679;28;83433;-92
2022/01/19 00:33:43;;;;;;;;;;;0.30;99.90;0.90;101037.00;;;;348436;27;88641;-92
2022/01/19 00:33:56;;;;;;;;;;;0.30;99.90;0.90;101024.00;;;;347661;28;83297;-92
2022/01/19 00:34:08;;;;;;;;;;;0.30;99.90;0.90;101032.00;;;;348707;27;89128;-92
2022/01/19 00:34:20;;;;;;;;;;;0.30;99.90;1.00;101037.00;;;;347447;28;83398;-92
2022/01/19 00:34:31;;;;;;;;;;;0.30;99.90;1.10;101033.00;;;;344584;28;89407;-92
2022/01/19 00:34:44;;;;;;;;;;;0.30;99.90;1.00;101036.00;;;;347854;28;82431;-92
2022/01/19 00:34:56;;;;;;;;;;;0.30;99.90;0.90;101028.00;;;;345365;28;89817;-93
2022/01/19 00:35:09;;;;;;;;;;;0.30;99.90;0.90;101024.00;;;;346268;28;83378;-92
2022/01/19 00:35:20;;;;;;;;;;;0.30;99.90;0.80;101037.00;;;;348692;27;90271;-93
2022/01/19 00:35:35;;;;;;;;;;;0.30;99.90;0.90;101028.00;;;;347725;27;83537;-92
2022/01/19 00:35:48;;;;;;;;;;;0.30;99.90;0.80;101040.00;;;;348216;27;91146;-92
2022/01/19 00:36:00;;;;;;;;;;;0.20;99.90;0.80;101034.00;;;;349036;27;82595;-92
2022/01/19 00:36:11;;;;;;;;;;;0.20;99.90;0.90;101031.00;;;;347123;28;88062;-92
2022/01/19 00:36:23;;;;;;;;;;;0.20;99.90;0.80;101031.00;;;;350228;27;83506;-92
2022/01/19 00:36:35;;;;;;;;;;;0.20;99.90;0.80;101034.00;;;;348854;27;89036;-92
2022/01/19 00:36:47;;;;;;;;;;;0.20;99.90;0.80;101037.00;;;;349091;27;83461;-92
2022/01/19 00:36:59;;;;;;;;;;;0.20;99.90;0.80;101031.00;;;;347101;27;90591;-92
2022/01/19 00:37:10;;;;;;;;;;;0.20;99.90;0.80;101038.00;;;;348817;27;83416;-92
2022/01/19 00:37:23;;;;;;;;;;;0.20;99.90;0.80;101036.00;;;;348229;27;89990;-92
2022/01/19 00:37:35;;;;;;;;;;;0.20;99.90;0.80;101038.00;;;;345817;28;83879;-92
2022/01/19 00:37:47;;;;;;;;;;;0.20;99.90;0.80;101038.00;;;;345693;28;89487;-92
2022/01/19 00:37:59;;;;;;;;;;;0.20;99.90;0.80;101034.00;;;;347601;28;83132;-92
2022/01/19 00:38:11;;;;;;;;;;;0.20;99.90;0.80;101031.00;;;;346967;28;88991;-91
2022/01/19 00:38:23;;;;;;;;;;;0.20;99.90;0.80;101036.00;;;;344524;28;83337;-93
2022/01/19 00:38:35;;;;;;;;;;;0.20;99.90;0.80;101029.00;;;;346744;28;89510;-92
2022/01/19 00:38:46;;;;;;;;;;;0.20;99.90;0.90;101031.00;;;;347989;27;82525;-92
2022/01/19 00:38:58;;;;;;;;;;;0.20;99.90;0.90;101036.00;;;;345564;28;88253;-93
2022/01/19 00:39:11;;;;;;;;;;;0.20;99.90;0.90;101032.00;;;;346155;28;85888;-92
2022/01/19 00:39:30;;;;;;;;;;;0.20;99.90;0.90;101031.00;;;;348363;27;90234;-92
2022/01/19 00:39:42;;;;;;;;;;;0.20;99.90;1.00;101032.00;;;;348253;27;83400;-92
2022/01/19 00:39:54;;;;;;;;;;;0.20;99.90;0.90;101024.00;;;;348585;27;86795;-92
2022/01/19 00:40:07;;;;;;;;;;;0.20;99.90;0.90;101028.00;;;;346258;28;82262;-92
2022/01/19 00:40:19;;;;;;;;;;;0.20;99.90;0.90;101028.00;;;;346985;28;92476;-92
2022/01/19 00:40:31;;;;;;;;;;;0.20;99.90;0.90;101021.00;;;;347549;28;83351;-92
2022/01/19 00:40:43;;;;;;;;;;;0.20;99.90;0.90;101013.00;;;;346901;28;90192;-92
2022/01/19 00:40:57;;;;;;;;;;;0.20;99.90;0.80;101023.00;;;;347278;27;83487;-92
2022/01/19 00:41:10;;;;;;;;;;;0.20;99.90;0.80;101018.00;;;;345734;28;88886;-92
2022/01/19 00:41:22;;;;;;;;;;;0.20;99.90;0.80;101034.00;;;;348823;27;83007;-92
2022/01/19 00:41:33;;;;;;;;;;;0.20;99.90;0.80;101026.00;;;;345579;28;90066;-92
2022/01/19 00:41:46;;;;;;;;;;;0.20;99.90;0.80;101022.00;;;;347009;28;82496;-92
2022/01/19 00:41:58;;;;;;;;;;;0.20;99.90;0.80;101024.00;;;;346890;28;89912;-93
2022/01/19 00:42:09;;;;;;;;;;;0.20;99.90;0.80;101022.00;;;;346695;28;83079;-92
2022/01/19 00:42:21;;;;;;;;;;;0.20;99.90;0.80;101020.00;;;;346960;28;90179;-93
2022/01/19 00:42:34;;;;;;;;;;;0.20;99.90;0.80;101018.00;;;;347617;28;83203;-92
2022/01/19 00:42:46;;;;;;;;;;;0.20;99.90;0.80;101021.00;;;;345646;28;88873;-92
2022/01/19 00:42:57;;;;;;;;;;;0.10;99.90;0.80;101019.00;;;;346232;28;83226;-92
2022/01/19 00:43:09;;;;;;;;;;;0.10;99.90;0.80;101023.00;;;;345513;28;88277;-92
2022/01/19 00:43:21;;;;;;;;;;;0.20;99.90;0.80;101022.00;;;;347582;28;83301;-92
2022/01/19 00:43:36;;;;;;;;;;;0.10;99.90;0.70;101023.00;;;;345507;28;87818;-92
2022/01/19 00:43:48;;;;;;;;;;;0.10;99.90;0.70;101024.00;;;;346245;28;83441;-92
2022/01/19 00:44:00;;;;;;;;;;;0.10;99.90;0.80;101024.00;;;;349750;27;90511;-93
2022/01/19 00:44:12;;;;;;;;;;;0.10;99.90;0.80;101027.00;;;;348928;27;82532;-92
2022/01/19 00:44:24;;;;;;;;;;;0.10;99.90;0.80;101027.00;;;;345814;28;89739;-92
2022/01/19 00:44:38;;;;;;;;;;;0.10;99.90;0.80;101019.00;;;;350191;27;83504;-93
2022/01/19 00:44:50;;;;;;;;;;;0.10;99.90;0.80;101025.00;;;;347842;27;89127;-92
2022/01/19 00:45:03;;;;;;;;;;;0.10;99.90;0.80;101028.00;;;;348982;27;83428;-92
2022/01/19 00:45:16;;;;;;;;;;;0.10;99.90;0.80;101026.00;;;;345638;28;88883;-92
2022/01/19 00:45:28;;;;;;;;;;;0.10;99.90;0.80;101032.00;;;;344749;28;83274;-92
2022/01/19 00:45:39;;;;;;;;;;;0.10;99.90;0.80;101028.00;;;;348169;27;91126;-92
2022/01/19 00:46:09;;;;;;;;;;;0.10;99.90;0.80;101031.00;;;;348921;27;83454;-92
2022/01/19 00:46:21;;;;;;;;;;;0.10;99.90;0.80;101029.00;;;;347175;28;90506;-92
2022/01/19 00:46:33;;;;;;;;;;;0.10;99.90;0.80;101019.00;;;;348796;27;82477;-92
2022/01/19 00:46:45;;;;;;;;;;;0.10;99.90;0.80;101030.00;;;;345851;28;87566;-92
2022/01/19 00:46:57;;;;;;;;;;;0.10;99.90;0.80;101029.00;;;;347603;28;83416;-93
2022/01/19 00:47:09;;;;;;;;;;;0.10;99.90;0.80;101025.00;;;;347160;28;87835;-92
2022/01/19 00:47:21;;;;;;;;;;;0.10;99.90;0.90;101030.00;;;;345841;28;82596;-91
2022/01/19 00:47:32;;;;;;;;;;;0.10;99.90;0.80;101019.00;;;;347162;27;88099;-91
2022/01/19 00:47:44;;;;;;;;;;;0.10;99.90;0.80;101025.00;;;;346255;28;82659;-92
2022/01/19 00:47:56;;;;;;;;;;;0.10;99.90;0.70;101025.00;;;;348366;27;88232;-92
2022/01/19 00:48:08;;;;;;;;;;;0.10;99.90;0.70;101029.00;;;;346430;28;82254;-92
2022/01/19 00:48:20;;;;;;;;;;;0.10;99.90;0.70;101028.00;;;;345774;28;91259;-92
2022/01/19 00:48:32;;;;;;;;;;;0.10;99.90;0.80;101030.00;;;;346535;28;83263;-94
2022/01/19 00:48:44;;;;;;;;;;;0.10;99.90;0.80;101027.00;;;;345543;28;92839;-92
2022/01/19 00:48:55;;;;;;;;;;;0.10;99.90;0.70;101026.00;;;;346237;28;83503;-92
2022/01/19 00:49:07;;;;;;;;;;;0.10;99.90;0.70;101027.00;;;;347096;28;91796;-92
2022/01/19 00:49:19;;;;;;;;;;;0.10;99.90;0.70;101031.00;;;;347815;28;82421;-92
2022/01/19 00:49:31;;;;;;;;;;;0.10;99.90;0.60;101024.00;;;;346908;28;92350;-92
2022/01/19 00:49:43;;;;;;;;;;;0.10;99.90;0.70;101030.00;;;;347792;28;83127;-92
2022/01/19 00:49:55;;;;;;;;;;;0.10;99.90;0.70;101027.00;;;;348547;27;90304;-92
2022/01/19 00:50:08;;;;;;;;;;;0.10;99.90;0.70;101025.00;;;;347721;28;83445;-92
2022/01/19 00:50:23;;;;;;;;;;;0.10;99.90;0.70;101025.00;;;;346016;28;89433;-92
2022/01/19 00:50:35;;;;;;;;;;;0.10;99.90;0.70;101033.00;;;;346493;28;83348;-92
2022/01/19 00:50:47;;;;;;;;;;;0.10;99.90;0.70;101027.00;;;;346818;28;89629;-92
2022/01/19 00:50:58;;;;;;;;;;;0.10;99.90;0.70;101029.00;;;;346430;28;82620;-92
2022/01/19 00:51:10;;;;;;;;;;;0.00;99.90;0.70;101028.00;;;;347127;28;91058;-92
2022/01/19 00:51:22;;;;;;;;;;;0.10;99.90;0.70;101030.00;;;;346641;28;83372;-92
2022/01/19 00:51:34;;;;;;;;;;;0.00;99.90;0.70;101026.00;;;;347294;28;89486;-92
2022/01/19 00:51:45;;;;;;;;;;;0.10;99.90;0.70;101033.00;;;;348113;28;83409;-92
2022/01/19 00:51:57;;;;;;;;;;;0.00;99.90;0.70;101021.00;;;;346204;28;89095;-92
2022/01/19 00:52:09;;;;;;;;;;;0.10;99.90;0.70;101025.00;;;;346582;28;83008;-92
2022/01/19 00:52:21;;;;;;;;;;;0.00;99.90;0.70;101028.00;;;;347421;28;90426;-92
2022/01/19 00:52:35;;;;;;;;;;;0.10;99.90;0.70;101024.00;;;;348173;28;82290;-93
2022/01/19 00:52:47;;;;;;;;;;;0.10;99.90;0.60;101022.00;;;;348705;27;89481;-92
2022/01/19 00:53:00;;;;;;;;;;;0.10;99.90;0.60;101026.00;;;;349191;27;82500;-92
2022/01/19 00:53:12;;;;;;;;;;;0.00;99.90;0.60;101027.00;;;;348746;27;88696;-92
2022/01/19 00:53:25;;;;;;;;;;;0.00;99.90;0.70;101029.00;;;;348157;28;82336;-92
2022/01/19 00:53:36;;;;;;;;;;;0.00;99.90;0.70;101016.00;;;;349000;27;89101;-92
2022/01/19 00:53:49;;;;;;;;;;;0.00;99.90;0.60;101026.00;;;;347969;28;82654;-91
2022/01/19 00:54:01;;;;;;;;;;;0.00;99.90;0.70;101021.00;;;;347522;28;89956;-92
2022/01/19 00:54:13;;;;;;;;;;;0.00;99.90;0.70;101021.00;;;;347975;28;84032;-92
2022/01/19 00:54:25;;;;;;;;;;;0.00;99.90;0.90;101020.00;;;;345175;28;89158;-92
2022/01/19 00:54:37;;;;;;;;;;;0.00;99.90;0.90;101020.00;;;;347968;27;83441;-92
2022/01/19 00:54:49;;;;;;;;;;;0.00;99.90;1.00;101023.00;;;;347453;28;90632;-92
2022/01/19 00:55:01;;;;;;;;;;;0.10;99.90;1.10;101028.00;;;;346719;28;82433;-93
2022/01/19 00:55:13;;;;;;;;;;;0.10;99.90;0.90;101018.00;;;;347513;28;90328;-91
2022/01/19 00:55:25;;;;;;;;;;;0.10;99.90;0.90;101016.00;;;;345130;28;83625;-93
2022/01/19 00:55:37;;;;;;;;;;;0.10;99.90;0.80;101012.00;;;;347593;28;88818;-92
2022/01/19 00:55:49;;;;;;;;;;;0.10;99.90;0.80;101019.00;;;;349332;27;82549;-92
2022/01/19 00:56:01;;;;;;;;;;;0.10;99.90;0.80;101018.00;;;;347566;28;90264;-92
2022/01/19 00:56:13;;;;;;;;;;;0.10;99.90;0.80;101025.00;;;;347938;28;82344;-90
2022/01/19 00:56:24;;;;;;;;;;;0.10;99.90;0.80;101020.00;;;;346537;28;86557;-92
2022/01/19 00:56:36;;;;;;;;;;;0.10;99.90;0.80;101010.00;;;;346644;28;83293;-92
2022/01/19 00:56:48;;;;;;;;;;;0.10;99.90;0.80;101013.00;;;;347465;27;90764;-92
2022/01/19 00:57:00;;;;;;;;;;;0.10;99.90;0.80;101020.00;;;;348235;28;82476;-91
2022/01/19 00:57:12;;;;;;;;;;;0.10;99.90;0.80;101015.00;;;;348531;27;89001;-92
2022/01/19 00:57:24;;;;;;;;;;;0.10;99.90;0.80;101018.00;;;;347866;28;82234;-92
2022/01/19 00:57:36;;;;;;;;;;;0.10;99.90;0.80;101019.00;;;;346052;28;89405;-93
2022/01/19 00:57:47;;;;;;;;;;;0.10;99.90;0.80;101017.00;;;;348116;28;83205;-92
2022/01/19 00:57:59;;;;;;;;;;;0.10;99.90;0.80;101015.00;;;;347575;28;91529;-93
2022/01/19 00:58:11;;;;;;;;;;;0.10;99.90;0.80;101010.00;;;;349362;27;82606;-92
2022/01/19 00:58:23;;;;;;;;;;;0.10;99.90;0.70;101014.00;;;;347415;28;87206;-91
2022/01/19 00:58:35;;;;;;;;;;;0.10;99.90;0.70;101012.00;;;;346466;28;82288;-93
2022/01/19 00:58:46;;;;;;;;;;;0.10;99.90;0.70;101012.00;;;;345865;28;87814;-92
2022/01/19 00:58:59;;;;;;;;;;;0.10;99.90;0.70;101016.00;;;;347886;27;82462;-92
2022/01/19 00:59:11;;;;;;;;;;;0.10;99.90;0.70;101002.00;;;;345657;28;89158;-92
2022/01/19 00:59:23;;;;;;;;;;;0.10;99.90;0.70;101004.00;;;;347692;28;83288;-93
2022/01/19 00:59:34;;;;;;;;;;;0.10;99.90;0.70;100999.00;;;;349341;27;88677;-92
2022/01/19 00:59:46;;;;;;;;;;;0.10;99.90;0.70;101008.00;;;;347236;28;83641;-92
2022/01/19 00:59:58;;;;;;;;;;;0.10;99.90;0.70;101004.00;;;;344727;28;90787;-92
2022/01/19 01:00:12;;;;;;;;;;;0.10;99.90;0.80;100997.00;;;;347936;28;83343;-93
2022/01/19 01:00:25;;;;;;;;;;;0.10;99.90;0.90;101010.00;;;;345058;28;86593;-92
2022/01/19 01:00:38;;;;;;;;;;;0.10;99.90;1.00;101010.00;;;;345195;28;82500;-92
2022/01/19 01:00:50;;;;;;;;;;;0.10;99.90;1.00;100995.00;;;;344901;28;88028;-92
2022/01/19 01:01:02;;;;;;;;;;;0.10;99.90;1.00;101007.00;;;;346526;28;82461;-92
2022/01/19 01:01:14;;;;;;;;;;;0.10;99.90;0.90;101008.00;;;;347304;28;88799;-93